Flood From: 18-02-2018 10:00 Until: 19-02-2018 06:00 warning for: Flood Level: Yellow info button

Although rather usual in this region, locally or potentially dangerous phenomena are expected. (such as local winds, summer thunderstorms, rising streams or high waves) Be aware and pay attention to the latest weather updates, especially if you carry out activities exposed to weather or close to a stream or shoreline. 


Meteo18 Weather Cam more information Meteo18 Weather Cam


Thunder radar more information blitzortung!


Rain radar more information rain snow radar


Visit our other weather sites:

Template documentation
and downloads

And another site



Weather Underground History page Text

Daily Summary for October 28, 2017 Units:  Metric    English   Both
« Previous Day
Next Day »
Daily Weekly Monthly Yearly Custom
  High: Low: Average:
Temperature: -17.8 °C -16.2 °C -13.3 °C
Dew Point: -17.8 °C -16.5 °C -14.6 °C
Humidity: Humidity % 63 % 86 %
Wind Speed: 0 km/h 0 km/h 2.4 km/h
Wind Gust: 0 km/h - -
Wind:- - West
Pressure: 0 hPa 34774.2 hPa -
Precipitation: 7.62 mm    
Historical Graphs
 
 
Tabular Data for October 28, 2017
Time Temperature Dew Point Pressure Wind Wind Speed Wind Gust Humidity Rainfall Rate (Hourly)
-17.8 °C -17.8 °C 0 hPa Calm     Humidity % 0 mm
00:02 -13 °C -14.1 °C 35001.1 hPa Calm   5.1 km/h 88 % 0 mm
00:12 -13.1 °C -14.2 °C 35001.1 hPa NNW 2.6 km/h 5.1 km/h 88 % 0 mm
00:17 -13.1 °C -14.1 °C 35001.1 hPa NW 2.6 km/h 2.6 km/h 88 % 0 mm
00:22 -13.1 °C -14.2 °C 35001.1 hPa NNW 7.7 km/h 7.7 km/h 88 % 0 mm
00:27 -13.1 °C -14.2 °C 35001.1 hPa Calm   5.1 km/h 88 % 0 mm
00:32 -13.1 °C -14.2 °C 35001.1 hPa NNW 2.6 km/h 10.3 km/h 88 % 0 mm
00:37 -13.2 °C -14.2 °C 35001.1 hPa NNE 5.1 km/h 10.3 km/h 88 % 0 mm
00:42 -13.1 °C -14.2 °C 35001.1 hPa Calm   7.7 km/h 88 % 0 mm
00:47 -13.2 °C -14.2 °C 35001.1 hPa North 2.6 km/h 7.7 km/h 88 % 0 mm
00:52 -13.2 °C -14.3 °C 35001.1 hPa Calm   7.7 km/h 88 % 0 mm
00:57 -13.3 °C -14.4 °C 35001.1 hPa Calm   2.6 km/h 88 % 0 mm
01:02 -13.4 °C -14.4 °C 35001.1 hPa NNW 2.6 km/h 2.6 km/h 89 % 0 mm
01:12 -13.4 °C -14.4 °C 35001.1 hPa Calm   2.6 km/h 89 % 0 mm
01:17 -13.5 °C -14.3 °C 35001.1 hPa Calm   2.6 km/h 90 % 0 mm
01:22 -13.5 °C -14.3 °C 35001.1 hPa Calm   2.6 km/h 90 % 0 mm
01:32 -13.5 °C -14.3 °C 35001.1 hPa Calm   5.1 km/h 90 % 0 mm
01:37 -13.5 °C -14.3 °C 35001.1 hPa Calm   5.1 km/h 90 % 0 mm
01:42 -13.6 °C -14.4 °C 35001.1 hPa NW 2.6 km/h 5.1 km/h 90 % 0 mm
01:52 -13.7 °C -14.4 °C 35001.1 hPa WNW 2.6 km/h 5.1 km/h 91 % 0 mm
02:02 -13.7 °C -14.4 °C 34990.9 hPa Calm   5.1 km/h 91 % 0 mm
02:12 -13.8 °C -14.5 °C 34990.9 hPa NW 2.6 km/h 5.1 km/h 92 % 0 mm
02:17 -13.9 °C -14.6 °C 34990.9 hPa WNW 2.6 km/h 5.1 km/h 92 % 0 mm
02:22 -14 °C -14.7 °C 34990.9 hPa WNW 5.1 km/h 5.1 km/h 92 % 0 mm
02:32 -14 °C -14.6 °C 34980.8 hPa WNW 2.6 km/h 5.1 km/h 93 % 0 mm
02:37 -14 °C -14.6 °C 34990.9 hPa NW 2.6 km/h 5.1 km/h 93 % 0 mm
02:42 -14 °C -14.6 °C 34980.8 hPa NW 2.6 km/h 5.1 km/h 93 % 0 mm
02:47 -13.8 °C -14.3 °C 34980.8 hPa NW 5.1 km/h 7.7 km/h 94 % 0 mm
02:52 -13.8 °C -14.4 °C 34980.8 hPa NW 2.6 km/h 7.7 km/h 93 % 0 mm
02:57 -13.8 °C -14.4 °C 34980.8 hPa NNW 5.1 km/h 7.7 km/h 92 % 0 mm
03:02 -13.7 °C -14.4 °C 34980.8 hPa NW 2.6 km/h 7.7 km/h 92 % 0 mm
03:12 -13.7 °C -14.4 °C 34980.8 hPa WNW 2.6 km/h 7.7 km/h 92 % 0 mm
03:17 -13.7 °C -14.4 °C 34980.8 hPa Calm   7.7 km/h 92 % 0 mm
03:32 -14.1 °C -14.7 °C 34980.8 hPa NW 5.1 km/h 5.1 km/h 92 % 0 mm
03:37 -14 °C -14.6 °C 34967.2 hPa NW 2.6 km/h 5.1 km/h 93 % 0 mm
03:42 -13.9 °C -14.6 °C 34967.2 hPa Calm   5.1 km/h 93 % 0 mm
03:47 -13.9 °C -14.6 °C 34967.2 hPa Calm   5.1 km/h 93 % 0 mm
03:52 -14 °C -14.6 °C 34967.2 hPa Calm   5.1 km/h 93 % 0 mm
03:57 -14.1 °C -14.7 °C 34967.2 hPa Calm   5.1 km/h 92 % 0 mm
04:02 -14.1 °C -14.8 °C 34957.1 hPa Calm   5.1 km/h 92 % 0 mm
04:12 -14.2 °C -14.8 °C 34957.1 hPa WNW 5.1 km/h 5.1 km/h 93 % 0 mm
04:17 -14.2 °C -14.8 °C 34957.1 hPa WNW 2.6 km/h 5.1 km/h 93 % 0 mm
04:22 -14.3 °C -14.8 °C 34957.1 hPa WNW 2.6 km/h 5.1 km/h 93 % 0 mm
04:32 -14.3 °C -14.8 °C 34957.1 hPa NW 2.6 km/h 5.1 km/h 94 % 0 mm
04:42 -14.3 °C -14.8 °C 34957.1 hPa Calm   5.1 km/h 94 % 0 mm
04:47 -14.3 °C -14.8 °C 34957.1 hPa Calm   5.1 km/h 94 % 0 mm
04:52 -14.3 °C -14.8 °C 34957.1 hPa Calm   5.1 km/h 94 % 0 mm
04:57 -14.3 °C -14.8 °C 34957.1 hPa WNW 2.6 km/h 7.7 km/h 94 % 0 mm
05:02 -14.3 °C -14.8 °C 34957.1 hPa WNW 2.6 km/h 7.7 km/h 94 % 0 mm
05:07 -14.3 °C -14.8 °C 34957.1 hPa WNW 2.6 km/h 5.1 km/h 94 % 0 mm
05:17 -14.2 °C -14.7 °C 34957.1 hPa WNW 2.6 km/h 5.1 km/h 94 % 0 mm
05:27 -14.2 °C -14.7 °C 34957.1 hPa WNW 2.6 km/h 5.1 km/h 94 % 0 mm
05:32 -14.2 °C -14.7 °C 34957.1 hPa NW 5.1 km/h 5.1 km/h 94 % 0 mm
05:42 -14.2 °C -14.7 °C 34957.1 hPa Calm   5.1 km/h 94 % 0 mm
05:47 -14.2 °C -14.7 °C 34957.1 hPa WNW 2.6 km/h 5.1 km/h 94 % 0 mm
05:52 -14.3 °C -14.8 °C 34946.9 hPa NW 2.6 km/h 5.1 km/h 94 % 0 mm
05:57 -14.2 °C -14.7 °C 34946.9 hPa NW 5.1 km/h 5.1 km/h 94 % 0 mm
06:02 -14.3 °C -14.8 °C 34946.9 hPa Calm   5.1 km/h 94 % 0 mm
06:07 -14.3 °C -14.8 °C 34957.1 hPa WNW 2.6 km/h 7.7 km/h 94 % 0 mm
06:12 -14.3 °C -14.8 °C 34957.1 hPa Calm   7.7 km/h 94 % 0 mm
06:17 -14.3 °C -14.7 °C 34957.1 hPa Calm   5.1 km/h 95 % 0 mm
06:22 -14.4 °C -14.9 °C 34957.1 hPa Calm   5.1 km/h 94 % 0 mm
06:27 -14.5 °C -15 °C 34957.1 hPa Calm   2.6 km/h 94 % 0 mm
06:32 -14.4 °C -14.8 °C 34957.1 hPa Calm   2.6 km/h 95 % 0 mm
06:42 -14.5 °C -14.9 °C 34957.1 hPa Calm   2.6 km/h 95 % 0 mm
06:47 -14.6 °C -14.9 °C 34957.1 hPa Calm   2.6 km/h 95 % 0 mm
06:52 -14.6 °C -14.9 °C 34957.1 hPa Calm   5.1 km/h 95 % 0 mm
06:57 -14.6 °C -15 °C 34957.1 hPa Calm   5.1 km/h 95 % 0 mm
07:02 -14.7 °C -15.1 °C 34957.1 hPa North 2.6 km/h 5.1 km/h 95 % 0 mm
07:12 -14.8 °C -15.2 °C 34957.1 hPa Calm   5.1 km/h 95 % 0 mm
07:17 -14.9 °C -15.3 °C 34957.1 hPa Calm   5.1 km/h 95 % 0 mm
07:22 -15.1 °C -15.6 °C 34957.1 hPa Calm   5.1 km/h 94 % 0 mm
07:32 -15.1 °C -15.5 °C 34957.1 hPa Calm   2.6 km/h 95 % 0 mm
07:42 -15.1 °C -15.5 °C 34957.1 hPa Calm   2.6 km/h 95 % 0 mm
07:47 -15.1 °C -15.4 °C 34957.1 hPa Calm     96 % 0 mm
07:52 -14.9 °C -15.3 °C 34957.1 hPa Calm     96 % 0 mm
07:57 -15 °C -15.3 °C 34957.1 hPa Calm   2.6 km/h 96 % 0 mm
08:02 -15.1 °C -15.5 °C 34957.1 hPa Calm   2.6 km/h 95 % 0 mm
08:07 -15.3 °C -15.7 °C 34967.2 hPa Calm   2.6 km/h 95 % 0 mm
08:12 -15.3 °C -15.7 °C 34957.1 hPa Calm   2.6 km/h 96 % 0 mm
08:17 -15.4 °C -15.8 °C 34957.1 hPa Calm     95 % 0 mm
08:22 -15.4 °C -15.8 °C 34957.1 hPa Calm     96 % 0 mm
08:32 -15.6 °C -15.9 °C 34957.1 hPa Calm     96 % 0 mm
08:42 -15.7 °C -16 °C 34957.1 hPa Calm     96 % 7.62 mm
08:47 -15.8 °C -16.2 °C 34957.1 hPa Calm     95 % 7.62 mm
08:52 -15.9 °C -16.3 °C 34967.2 hPa Calm     95 % 7.62 mm
08:57 -16.1 °C -16.4 °C 34967.2 hPa Calm     95 % 7.62 mm
09:02 -16.2 °C -16.5 °C 34967.2 hPa Calm     96 % 7.62 mm
09:12 -16.2 °C -16.5 °C 34980.8 hPa Calm     96 % 7.62 mm
09:22 -16.1 °C -16.4 °C 34980.8 hPa Calm     96 % 7.62 mm
09:32 -15.8 °C -16.2 °C 34980.8 hPa Calm     96 % 7.62 mm
09:37 -15.7 °C -16.1 °C 34980.8 hPa Calm     96 % 0 mm
09:42 -15.9 °C -16.3 °C 34980.8 hPa Calm     95 % 0 mm
09:52 -16 °C -16.4 °C 34980.8 hPa Calm     95 % 0 mm
09:57 -15.9 °C -16.2 °C 34980.8 hPa Calm   2.6 km/h 96 % 0 mm
10:02 -15.8 °C -16.2 °C 34980.8 hPa Calm   2.6 km/h 96 % 0 mm
10:07 -15.8 °C -16.1 °C 34967.2 hPa Calm   2.6 km/h 96 % 0 mm
10:12 -15.6 °C -15.9 °C 34980.8 hPa Calm   2.6 km/h 96 % 0 mm
10:17 -15.4 °C -15.7 °C 34967.2 hPa Calm   2.6 km/h 96 % 0 mm
10:22 -15.2 °C -15.6 °C 34980.8 hPa Calm   2.6 km/h 96 % 0 mm
10:32 -14.7 °C -15 °C 34967.2 hPa Calm     96 % 0 mm
10:42 -14.4 °C -14.8 °C 34967.2 hPa South 5.1 km/h   95 % 0 mm
10:47 -14.3 °C -14.8 °C 34967.2 hPa Calm   5.1 km/h 94 % 0 mm
10:52 -14.2 °C -14.7 °C 34967.2 hPa Calm   5.1 km/h 94 % 0 mm
11:02 -13.8 °C -14.3 °C 34967.2 hPa Calm   5.1 km/h 94 % 0 mm
11:12 -13.4 °C -13.9 °C 34957.1 hPa Calm   5.1 km/h 94 % 0 mm
11:17 -13.2 °C -13.7 °C 34957.1 hPa Calm   5.1 km/h 94 % 0 mm
11:22 -13.1 °C -13.7 °C 34957.1 hPa SSE 2.6 km/h 5.1 km/h 93 % 0 mm
11:32 -12.8 °C -13.5 °C 34946.9 hPa Calm   5.1 km/h 92 % 0 mm
11:42 -12.6 °C -13.4 °C 34946.9 hPa Calm   5.1 km/h 91 % 0 mm
11:47 -12.5 °C -13.4 °C 34946.9 hPa SW 2.6 km/h 5.1 km/h 90 % 0 mm
11:52 -12.5 °C -13.3 °C 34946.9 hPa Calm   5.1 km/h 91 % 0 mm
11:57 -12.5 °C -13.4 °C 34946.9 hPa Calm   10.3 km/h 90 % 0 mm
12:02 -12.4 °C -13.2 °C 34946.9 hPa SSE 2.6 km/h 10.3 km/h 91 % 0 mm
12:07 -12.3 °C -13.2 °C 34946.9 hPa Calm   5.1 km/h 90 % 0 mm
12:12 -12.3 °C -13.2 °C 34946.9 hPa SE 5.1 km/h 5.1 km/h 90 % 0 mm
12:22 -12.3 °C -13.2 °C 34946.9 hPa Calm   7.7 km/h 90 % 0 mm
12:27 -12.2 °C -13.1 °C 34957.1 hPa Calm   7.7 km/h 89 % 0 mm
12:32 -12.2 °C -13.1 °C 34946.9 hPa Calm   7.7 km/h 89 % 0 mm
12:37 -12.1 °C -13.1 °C 34946.9 hPa Calm   2.6 km/h 89 % 0 mm
12:42 -11.9 °C -12.9 °C 34946.9 hPa Calm   2.6 km/h 89 % 0 mm
12:47 -11.8 °C -12.9 °C 34946.9 hPa Calm   2.6 km/h 88 % 0 mm
12:52 -11.8 °C -13 °C 34946.9 hPa Calm   2.6 km/h 87 % 0 mm
12:57 -11.8 °C -13 °C 34933.4 hPa SSW 5.1 km/h 5.1 km/h 87 % 0 mm
13:02 -11.8 °C -12.9 °C 34923.2 hPa SE 2.6 km/h 12.9 km/h 87 % 0 mm
13:12 -11.6 °C -13.2 °C 34909.7 hPa Calm   12.9 km/h 83 % 0 mm
13:17 -11.5 °C -13.2 °C 34909.7 hPa SSW 7.7 km/h 10.3 km/h 82 % 0 mm
13:22 -11.3 °C -13.2 °C 34909.7 hPa Calm   10.3 km/h 80 % 0 mm
13:32 -11.3 °C -14.6 °C 34899.5 hPa WNW 5.1 km/h 7.7 km/h 67 % 0 mm
13:37 -11.3 °C -14.6 °C 34889.3 hPa West 7.7 km/h 15.6 km/h 67 % 0 mm
13:42 -11.2 °C -14.8 °C 34899.5 hPa West 5.1 km/h 15.6 km/h 65 % 0 mm
13:47 -11.2 °C -14.9 °C 34889.3 hPa WNW 5.1 km/h 15.6 km/h 63 % 0 mm
13:52 -11.1 °C -14.8 °C 34899.5 hPa West 5.1 km/h 15.6 km/h 63 % 0 mm
13:57 -11 °C -14.7 °C 34899.5 hPa WSW 10.3 km/h 23.3 km/h 64 % 0 mm
14:02 -11 °C -14.7 °C 34899.5 hPa WNW 7.7 km/h 23.3 km/h 64 % 0 mm
14:12 -11 °C -14.4 °C 34889.3 hPa North 18.2 km/h 23.3 km/h 66 % 0 mm
14:22 -11.2 °C -14.6 °C 34889.3 hPa WNW 10.3 km/h 23.3 km/h 66 % 0 mm
14:32 -11.2 °C -14.4 °C 34889.3 hPa WNW 12.9 km/h 23.3 km/h 67 % 0 mm
14:37 -11.2 °C -14.4 °C 34889.3 hPa WNW 12.9 km/h 20.8 km/h 67 % 0 mm
14:42 -11.2 °C -14.4 °C 34889.3 hPa WNW 2.6 km/h 20.8 km/h 67 % 0 mm
14:52 -11.2 °C -14.2 °C 34889.3 hPa WNW 12.9 km/h 20.8 km/h 69 % 0 mm
14:57 -11.2 °C -14.1 °C 34875.8 hPa West 5.1 km/h 23.3 km/h 71 % 0 mm
15:02 -11.1 °C -13.9 °C 34875.8 hPa NNE 18.2 km/h 23.3 km/h 71 % 0 mm
15:12 -11.1 °C -14.1 °C 34865.6 hPa NNW 2.6 km/h 25.9 km/h 70 % 0 mm
15:17 -11.1 °C -14.1 °C 34865.6 hPa WNW 7.7 km/h 25.9 km/h 69 % 0 mm
15:22 -11.1 °C -14.3 °C 34865.6 hPa NW 18.2 km/h 25.9 km/h 67 % 0 mm
15:32 -10.9 °C -14.3 °C 34865.6 hPa WNW 5.1 km/h 31.1 km/h 67 % 0 mm
15:37 -10.8 °C -14.5 °C 34852.1 hPa WNW 7.7 km/h 23.3 km/h 64 % 0 mm
15:42 -10.8 °C -14.5 °C 34852.1 hPa WNW 15.6 km/h 23.3 km/h 64 % 0 mm
15:52 -10.9 °C -14.4 °C 34852.1 hPa WSW 10.3 km/h 25.9 km/h 65 % 0 mm
16:02 -10.9 °C -14.4 °C 34841.9 hPa WSW 10.3 km/h 23.3 km/h 66 % 0 mm
16:12 -10.9 °C -14.4 °C 34831.8 hPa WNW 7.7 km/h 23.3 km/h 65 % 0 mm
16:17 -10.8 °C -14.4 °C 34841.9 hPa WSW 7.7 km/h 20.8 km/h 65 % 0 mm
16:22 -10.7 °C -14.2 °C 34831.8 hPa WSW 5.1 km/h 20.8 km/h 66 % 0 mm
16:27 -10.7 °C -14.3 °C 34831.8 hPa West 5.1 km/h 18.2 km/h 65 % 0 mm
16:32 -10.8 °C -14.2 °C 34831.8 hPa SW 7.7 km/h 18.2 km/h 66 % 0 mm
16:37 -10.7 °C -14.2 °C 34831.8 hPa WSW 2.6 km/h 18.2 km/h 66 % 0 mm
16:42 -10.7 °C -14.1 °C 34831.8 hPa WSW 7.7 km/h 18.2 km/h 66 % 0 mm
16:52 -10.7 °C -14.3 °C 34831.8 hPa West 7.7 km/h 10.3 km/h 65 % 0 mm
16:57 -10.8 °C -14.2 °C 34831.8 hPa West 2.6 km/h 18.2 km/h 66 % 0 mm
17:02 -10.8 °C -14.2 °C 34831.8 hPa Calm   18.2 km/h 66 % 0 mm
17:12 -10.7 °C -14.2 °C 34831.8 hPa West 10.3 km/h 18.2 km/h 65 % 0 mm
17:17 -10.7 °C -14.2 °C 34831.8 hPa NW 5.1 km/h 15.6 km/h 66 % 0 mm
17:22 -10.8 °C -14.1 °C 34831.8 hPa WSW 5.1 km/h 15.6 km/h 67 % 0 mm
17:27 -10.8 °C -14.2 °C 34818.2 hPa West 7.7 km/h 20.8 km/h 67 % 0 mm
17:32 -10.8 °C -14.2 °C 34818.2 hPa WNW 7.7 km/h 20.8 km/h 67 % 0 mm
17:42 -10.9 °C -14.2 °C 34818.2 hPa WNW 12.9 km/h 20.8 km/h 67 % 0 mm
17:47 -10.9 °C -14.1 °C 34818.2 hPa West 7.7 km/h 20.8 km/h 68 % 0 mm
17:52 -10.9 °C -14 °C 34818.2 hPa SW 7.7 km/h 20.8 km/h 69 % 0 mm
17:57 -11 °C -14.1 °C 34818.2 hPa West 7.7 km/h 20.8 km/h 69 % 0 mm
18:02 -11.1 °C -14 °C 34818.2 hPa West 7.7 km/h 20.8 km/h 70 % 0 mm
18:12 -11.1 °C -14.1 °C 34808.1 hPa West 7.7 km/h 12.9 km/h 70 % 0 mm
18:17 -11.2 °C -14.1 °C 34808.1 hPa West 7.7 km/h 15.6 km/h 70 % 0 mm
18:22 -11.2 °C -14.1 °C 34808.1 hPa West 5.1 km/h 12.9 km/h 70 % 0 mm
18:32 -11.3 °C -14.2 °C 34808.1 hPa West 2.6 km/h 12.9 km/h 71 % 0 mm
18:37 -11.5 °C -14.2 °C 34808.1 hPa Calm   12.9 km/h 72 % 0 mm
18:47 -11.7 °C -14.2 °C 34808.1 hPa Calm   10.3 km/h 74 % 0 mm
18:52 -11.8 °C -14.2 °C 34808.1 hPa West 2.6 km/h 5.1 km/h 75 % 0 mm
18:57 -11.9 °C -14.2 °C 34808.1 hPa Calm   5.1 km/h 76 % 0 mm
19:02 -12.1 °C -14.2 °C 34808.1 hPa Calm   5.1 km/h 77 % 0 mm
19:12 -12.3 °C -14.3 °C 34808.1 hPa Calm   5.1 km/h 79 % 0 mm
19:17 -12.4 °C -14.3 °C 34808.1 hPa Calm   2.6 km/h 80 % 0 mm
19:22 -12.4 °C -14.3 °C 34808.1 hPa WSW 2.6 km/h 2.6 km/h 80 % 0 mm
19:32 -12.6 °C -14.3 °C 34808.1 hPa West 2.6 km/h 5.1 km/h 81 % 0 mm
19:42 -12.7 °C -14.3 °C 34818.2 hPa Calm   5.1 km/h 82 % 0 mm
19:52 -12.8 °C -14.3 °C 34818.2 hPa Calm   2.6 km/h 83 % 0 mm
19:57 -12.9 °C -14.3 °C 34818.2 hPa Calm     84 % 0 mm
20:02 -13 °C -14.4 °C 34818.2 hPa Calm     84 % 0 mm
20:12 -13.1 °C -14.4 °C 34818.2 hPa Calm     85 % 0 mm
20:17 -13.1 °C -14.4 °C 34818.2 hPa Calm     85 % 0 mm
20:22 -13.1 °C -14.4 °C 34818.2 hPa Calm     85 % 0 mm
20:27 -13.2 °C -14.5 °C 34818.2 hPa Calm     85 % 0 mm
20:32 -13.2 °C -14.6 °C 34818.2 hPa Calm     85 % 0 mm
20:37 -13.3 °C -14.6 °C 34818.2 hPa Calm     86 % 0 mm
20:42 -13.4 °C -14.5 °C 34818.2 hPa Calm     87 % 0 mm
20:52 -13.4 °C -14.6 °C 34818.2 hPa Calm     87 % 0 mm
21:02 -13.5 °C -14.6 °C 34818.2 hPa Calm     87 % 0 mm
21:07 -13.6 °C -14.7 °C 34818.2 hPa Calm     87 % 0 mm
21:12 -13.6 °C -14.5 °C 34818.2 hPa Calm     89 % 0 mm
21:17 -13.4 °C -14.4 °C 34808.1 hPa Calm     89 % 0 mm
21:22 -13.6 °C -14.7 °C 34808.1 hPa Calm     87 % 0 mm
21:32 -13.7 °C -14.7 °C 34808.1 hPa Calm     89 % 0 mm
21:42 -13.8 °C -14.9 °C 34818.2 hPa Calm   2.6 km/h 88 % 0 mm
21:47 -13.9 °C -14.8 °C 34808.1 hPa Calm   2.6 km/h 90 % 0 mm
21:52 -13.9 °C -14.8 °C 34808.1 hPa Calm   2.6 km/h 90 % 0 mm
21:57 -13.9 °C -14.8 °C 34808.1 hPa Calm   2.6 km/h 90 % 0 mm
22:02 -13.9 °C -14.8 °C 34808.1 hPa Calm   2.6 km/h 90 % 0 mm
22:12 -14.2 °C -15.1 °C 34808.1 hPa Calm     90 % 0 mm
22:17 -14.3 °C -15.1 °C 34808.1 hPa Calm     90 % 0 mm
22:22 -14.4 °C -15.2 °C 34808.1 hPa South 2.6 km/h   90 % 0 mm
22:27 -14.4 °C -15.2 °C 34808.1 hPa South 2.6 km/h 2.6 km/h 91 % 0 mm
22:32 -14.6 °C -15.3 °C 34808.1 hPa SSE 2.6 km/h 2.6 km/h 91 % 0 mm
22:42 -14.6 °C -15.3 °C 34808.1 hPa Calm   5.1 km/h 92 % 0 mm
22:47 -14.6 °C -15.3 °C 34808.1 hPa Calm   5.1 km/h 92 % 0 mm
22:52 -14.7 °C -15.3 °C 34808.1 hPa Calm   5.1 km/h 92 % 0 mm
22:57 -14.7 °C -15.4 °C 34797.9 hPa Calm     92 % 0 mm
23:02 -14.7 °C -15.3 °C 34797.9 hPa Calm     93 % 0 mm
23:12 -14.7 °C -15.3 °C 34797.9 hPa Calm   2.6 km/h 93 % 0 mm
23:17 -14.8 °C -15.3 °C 34797.9 hPa Calm   2.6 km/h 93 % 0 mm
23:22 -14.7 °C -15.2 °C 34797.9 hPa Calm   2.6 km/h 94 % 0 mm
23:27 -14.7 °C -15.3 °C 34797.9 hPa Calm   2.6 km/h 93 % 0 mm
23:32 -14.7 °C -15.2 °C 34797.9 hPa Calm   2.6 km/h 93 % 0 mm
23:37 -14.6 °C -15.1 °C 34797.9 hPa WSW 2.6 km/h 2.6 km/h 94 % 0 mm
23:42 -14.4 °C -14.9 °C 34784.4 hPa Calm   2.6 km/h 94 % 0 mm
23:47 -14.3 °C -14.9 °C 34784.4 hPa SW 2.6 km/h 5.1 km/h 93 % 0 mm
23:52 -14.4 °C -15.1 °C 34784.4 hPa Calm   5.1 km/h 92 % 0 mm
23:57 -14.5 °C -15.2 °C 34774.2 hPa Calm   2.6 km/h 92 % 0 mm
Meteo18
Compliments of Weather Underground - 4 mb

Script developed by  Jim McMurry - jmcmurry@mwt.net Adapted for the template by  Wim van der Kuil - Leuven-Template.eu

You find our weather info also at:

European Weather Network

Weather Underground

Equipment we use:

Weather-station
Davis Vue

Weather-program
Meteobridge

Weather-server
Raspberry PI 2 B+

Provider
1 and 1

Davis Vue

Meteobridge

Raspberry PI 2 B+

1 and 1